AFL3311 ULLI-UUEE
Flight info
| Callsign | AFL3311 |
|---|---|
| Flight time | 0h 57m |
| Altitude | 33000 |
| Route | SUGIN1A SUGIN T873 NIRGI T73 NAMIN NAMIN3F |
| Aircraft | B738/M-SDE2E3FGHIRWXY/LB1 |
Departure
| Time | 2026-04-30 20:32 |
|---|---|
| Airport | Pulkovo Airport (ULLI) |
Arrival
| Time | 2026-04-30 21:29 |
|---|---|
| Airport | Sheremetyevo International Airport (UUEE) |
| Time | Latitude | Longitude | Altitude | Speed | Heading |
|---|---|---|---|---|---|
| 2026-04-30 20:09 | 59.79667 | 30.26561 | 84 ft | 0 kts | 107° |
| 2026-04-30 20:22 | 59.79668 | 30.26554 | 85 ft | 3 kts | 106° |
| 2026-04-30 20:22 | 59.79673 | 30.26502 | 86 ft | 4 kts | 88° |
| 2026-04-30 20:22 | 59.79667 | 30.26454 | 86 ft | 4 kts | 49° |
| 2026-04-30 20:22 | 59.79654 | 30.26434 | 85 ft | 0 kts | 16° |
| 2026-04-30 20:26 | 59.79659 | 30.26437 | 80 ft | 0 kts | 17° |
| 2026-04-30 20:26 | 59.79677 | 30.26448 | 80 ft | 5 kts | 17° |
| 2026-04-30 20:27 | 59.79881 | 30.26575 | 82 ft | 25 kts | 17° |
| 2026-04-30 20:27 | 59.80235 | 30.26787 | 81 ft | 25 kts | 17° |
| 2026-04-30 20:28 | 59.80383 | 30.26940 | 83 ft | 7 kts | 104° |
| 2026-04-30 20:28 | 59.80352 | 30.27141 | 83 ft | 10 kts | 107° |
| 2026-04-30 20:29 | 59.80284 | 30.27599 | 82 ft | 22 kts | 106° |
| 2026-04-30 20:30 | 59.80100 | 30.28848 | 70 ft | 40 kts | 107° |
| 2026-04-30 20:30 | 59.79994 | 30.30141 | 70 ft | 18 kts | 49° |
| 2026-04-30 20:31 | 59.80132 | 30.30159 | 72 ft | 27 kts | 286° |
| 2026-04-30 20:32 | 59.80790 | 30.25782 | 352 ft | 162 kts | 287° |
| 2026-04-30 20:32 | 59.81419 | 30.21647 | 1647 ft | 154 kts | 286° |
| 2026-04-30 20:33 | 59.81719 | 30.19611 | 2251 ft | 153 kts | 287° |
| 2026-04-30 20:33 | 59.82314 | 30.15541 | 3344 ft | 158 kts | 289° |
| 2026-04-30 20:33 | 59.82642 | 30.13304 | 3573 ft | 182 kts | 289° |
| 2026-04-30 20:34 | 59.83432 | 30.07915 | 3980 ft | 219 kts | 288° |
| 2026-04-30 20:34 | 59.84217 | 30.01884 | 5087 ft | 231 kts | 274° |
| 2026-04-30 20:35 | 59.83788 | 29.98777 | 5684 ft | 241 kts | 240° |
| 2026-04-30 20:35 | 59.82548 | 29.96524 | 6296 ft | 252 kts | 208° |
| 2026-04-30 20:35 | 59.79136 | 29.94343 | 7488 ft | 263 kts | 197° |
| 2026-04-30 20:36 | 59.77356 | 29.93374 | 8101 ft | 266 kts | 197° |
| 2026-04-30 20:36 | 59.75513 | 29.92813 | 8696 ft | 273 kts | 174° |
| 2026-04-30 20:36 | 59.72462 | 29.96848 | 9534 ft | 286 kts | 110° |
| 2026-04-30 20:37 | 59.69943 | 30.13930 | 10881 ft | 350 kts | 101° |
| 2026-04-30 20:38 | 59.69487 | 30.18101 | 10992 ft | 362 kts | 90° |
| 2026-04-30 20:38 | 59.69440 | 30.23187 | 11163 ft | 377 kts | 85° |
| 2026-04-30 20:38 | 59.69421 | 30.28476 | 11514 ft | 387 kts | 86° |
| 2026-04-30 20:39 | 59.68986 | 30.39263 | 12684 ft | 398 kts | 96° |
| 2026-04-30 20:39 | 59.68384 | 30.44591 | 13256 ft | 403 kts | 98° |
| 2026-04-30 20:39 | 59.67722 | 30.50010 | 13787 ft | 406 kts | 98° |
| 2026-04-30 20:40 | 59.66461 | 30.61006 | 14816 ft | 411 kts | 96° |
| 2026-04-30 20:40 | 59.65860 | 30.66556 | 15343 ft | 413 kts | 96° |
| 2026-04-30 20:40 | 59.65279 | 30.72133 | 15776 ft | 415 kts | 94° |
| 2026-04-30 20:41 | 59.64336 | 30.83378 | 16638 ft | 418 kts | 92° |
| 2026-04-30 20:41 | 59.63889 | 30.89090 | 17055 ft | 421 kts | 92° |
| 2026-04-30 20:41 | 59.63435 | 30.94826 | 17437 ft | 423 kts | 92° |
| 2026-04-30 20:41 | 59.62968 | 31.00589 | 17807 ft | 425 kts | 92° |
| 2026-04-30 20:42 | 59.62489 | 31.06375 | 18150 ft | 427 kts | 92° |
| 2026-04-30 20:42 | 59.62003 | 31.12135 | 18472 ft | 430 kts | 92° |
| 2026-04-30 20:42 | 59.61002 | 31.23848 | 19146 ft | 433 kts | 92° |
| 2026-04-30 20:43 | 59.60495 | 31.29722 | 19451 ft | 435 kts | 92° |
| 2026-04-30 20:43 | 59.59982 | 31.35637 | 19730 ft | 437 kts | 92° |
| 2026-04-30 20:43 | 59.59463 | 31.41583 | 20008 ft | 439 kts | 92° |
| 2026-04-30 20:44 | 59.58419 | 31.53453 | 20529 ft | 443 kts | 93° |
| 2026-04-30 20:44 | 59.57888 | 31.59450 | 20773 ft | 444 kts | 93° |
| 2026-04-30 20:44 | 59.56815 | 31.71452 | 21248 ft | 447 kts | 93° |
| 2026-04-30 20:45 | 59.55719 | 31.83585 | 21672 ft | 450 kts | 93° |
| 2026-04-30 20:45 | 59.55165 | 31.89681 | 21882 ft | 452 kts | 93° |
| 2026-04-30 20:45 | 59.54606 | 31.95802 | 22083 ft | 453 kts | 93° |
| 2026-04-30 20:46 | 59.51874 | 32.13718 | 22587 ft | 483 kts | 122° |
| 2026-04-30 20:46 | 59.49592 | 32.18620 | 22749 ft | 482 kts | 129° |
| 2026-04-30 20:47 | 59.44918 | 32.27577 | 22926 ft | 454 kts | 131° |
| 2026-04-30 20:47 | 59.42609 | 32.31728 | 22970 ft | 450 kts | 132° |
| 2026-04-30 20:48 | 59.37999 | 32.40471 | 23134 ft | 471 kts | 129° |
| 2026-04-30 20:48 | 59.35694 | 32.45005 | 23218 ft | 481 kts | 129° |
| 2026-04-30 20:48 | 59.33302 | 32.49712 | 23300 ft | 491 kts | 129° |
| 2026-04-30 20:48 | 59.30858 | 32.54484 | 23500 ft | 497 kts | 130° |
| 2026-04-30 20:49 | 59.28392 | 32.59259 | 23849 ft | 499 kts | 130° |
| 2026-04-30 20:49 | 59.25914 | 32.64028 | 24214 ft | 500 kts | 130° |
| 2026-04-30 20:49 | 59.23419 | 32.68810 | 24547 ft | 502 kts | 130° |
| 2026-04-30 20:50 | 59.18432 | 32.78336 | 25136 ft | 507 kts | 130° |
| 2026-04-30 20:50 | 59.15898 | 32.83163 | 25374 ft | 509 kts | 130° |
| 2026-04-30 20:50 | 59.13355 | 32.87999 | 25675 ft | 511 kts | 130° |
| 2026-04-30 20:50 | 59.10803 | 32.92840 | 25970 ft | 511 kts | 130° |
| 2026-04-30 20:51 | 59.08243 | 32.97687 | 26222 ft | 513 kts | 130° |
| 2026-04-30 20:51 | 59.03146 | 33.07309 | 26699 ft | 514 kts | 130° |
| 2026-04-30 20:51 | 59.00568 | 33.12157 | 26991 ft | 513 kts | 130° |
| 2026-04-30 20:52 | 58.98004 | 33.16971 | 27370 ft | 510 kts | 130° |
| 2026-04-30 20:52 | 58.95451 | 33.21757 | 27694 ft | 510 kts | 130° |
| 2026-04-30 20:52 | 58.90372 | 33.31245 | 28244 ft | 510 kts | 130° |
| 2026-04-30 20:53 | 58.87820 | 33.35991 | 28531 ft | 509 kts | 130° |
| 2026-04-30 20:53 | 58.85258 | 33.40742 | 28860 ft | 507 kts | 130° |
| 2026-04-30 20:53 | 58.82717 | 33.45446 | 29173 ft | 506 kts | 131° |
| 2026-04-30 20:54 | 58.77738 | 33.54620 | 29399 ft | 483 kts | 130° |
| 2026-04-30 20:54 | 58.75339 | 33.59020 | 29380 ft | 470 kts | 130° |
| 2026-04-30 20:55 | 58.68257 | 33.72019 | 29449 ft | 476 kts | 130° |
| 2026-04-30 20:55 | 58.63383 | 33.80926 | 29620 ft | 490 kts | 131° |
| 2026-04-30 20:56 | 58.58483 | 33.89824 | 30499 ft | 484 kts | 131° |
| 2026-04-30 20:56 | 58.56033 | 33.94258 | 30906 ft | 483 kts | 131° |
| 2026-04-30 20:56 | 58.51132 | 34.03118 | 31487 ft | 484 kts | 131° |
| 2026-04-30 20:57 | 58.48709 | 34.07486 | 31795 ft | 483 kts | 131° |
| 2026-04-30 20:57 | 58.46260 | 34.11893 | 32123 ft | 483 kts | 131° |
| 2026-04-30 20:57 | 58.43811 | 34.16289 | 32426 ft | 482 kts | 131° |
| 2026-04-30 20:58 | 58.38925 | 34.25037 | 33010 ft | 482 kts | 132° |
| 2026-04-30 20:58 | 58.36475 | 34.29412 | 33191 ft | 484 kts | 132° |
| 2026-04-30 20:58 | 58.31533 | 34.38216 | 33181 ft | 494 kts | 132° |
| 2026-04-30 20:59 | 58.23909 | 34.51716 | 33177 ft | 502 kts | 132° |
| 2026-04-30 21:00 | 58.13420 | 34.69241 | 33176 ft | 505 kts | 136° |
| 2026-04-30 21:01 | 58.05244 | 34.81870 | 33179 ft | 504 kts | 136° |
| 2026-04-30 21:02 | 57.97187 | 34.94480 | 33173 ft | 503 kts | 136° |
| 2026-04-30 21:02 | 57.91798 | 35.02903 | 33186 ft | 501 kts | 136° |
| 2026-04-30 21:03 | 57.86454 | 35.11213 | 33183 ft | 500 kts | 136° |
| 2026-04-30 21:03 | 57.81093 | 35.19511 | 33180 ft | 499 kts | 136° |
| 2026-04-30 21:04 | 57.76629 | 35.26395 | 33184 ft | 499 kts | 136° |
| 2026-04-30 21:04 | 57.68583 | 35.38751 | 33183 ft | 498 kts | 137° |
| 2026-04-30 21:05 | 57.63217 | 35.46955 | 33189 ft | 498 kts | 137° |
| 2026-04-30 21:05 | 57.58029 | 35.54855 | 33185 ft | 498 kts | 137° |
| 2026-04-30 21:06 | 57.52646 | 35.63043 | 33186 ft | 498 kts | 137° |
| 2026-04-30 21:06 | 57.47259 | 35.71216 | 33182 ft | 499 kts | 137° |
| 2026-04-30 21:07 | 57.41894 | 35.79325 | 33099 ft | 499 kts | 137° |
| 2026-04-30 21:07 | 57.39185 | 35.83409 | 32479 ft | 497 kts | 137° |
| 2026-04-30 21:07 | 57.36496 | 35.87451 | 31692 ft | 497 kts | 137° |
| 2026-04-30 21:08 | 57.33834 | 35.91447 | 30912 ft | 497 kts | 136° |
| 2026-04-30 21:08 | 57.31134 | 35.95492 | 30065 ft | 499 kts | 136° |
| 2026-04-30 21:08 | 57.28431 | 35.99535 | 29188 ft | 500 kts | 136° |
| 2026-04-30 21:08 | 57.25793 | 36.03471 | 28281 ft | 501 kts | 137° |
| 2026-04-30 21:09 | 57.23056 | 36.07547 | 27386 ft | 498 kts | 137° |
| 2026-04-30 21:09 | 57.20355 | 36.11561 | 26305 ft | 499 kts | 137° |
| 2026-04-30 21:09 | 57.17689 | 36.15514 | 25560 ft | 493 kts | 137° |
| 2026-04-30 21:09 | 57.15034 | 36.19442 | 24885 ft | 486 kts | 138° |
| 2026-04-30 21:10 | 57.12410 | 36.23318 | 24184 ft | 480 kts | 138° |
| 2026-04-30 21:10 | 57.09820 | 36.27140 | 23491 ft | 474 kts | 138° |
| 2026-04-30 21:10 | 57.07257 | 36.30919 | 22803 ft | 468 kts | 138° |
| 2026-04-30 21:10 | 57.04724 | 36.34643 | 22114 ft | 463 kts | 139° |
| 2026-04-30 21:11 | 57.02224 | 36.38306 | 21447 ft | 457 kts | 139° |
| 2026-04-30 21:11 | 56.99770 | 36.41871 | 20778 ft | 451 kts | 139° |
| 2026-04-30 21:11 | 56.97317 | 36.45422 | 20111 ft | 445 kts | 139° |
| 2026-04-30 21:11 | 56.94894 | 36.48926 | 19457 ft | 440 kts | 139° |
| 2026-04-30 21:12 | 56.92508 | 36.52375 | 18800 ft | 434 kts | 140° |
| 2026-04-30 21:12 | 56.90146 | 36.55778 | 18158 ft | 429 kts | 140° |
| 2026-04-30 21:12 | 56.87808 | 36.59148 | 17514 ft | 425 kts | 140° |
| 2026-04-30 21:12 | 56.85494 | 36.62490 | 16867 ft | 420 kts | 140° |
| 2026-04-30 21:13 | 56.83206 | 36.65780 | 16259 ft | 415 kts | 140° |
| 2026-04-30 21:13 | 56.80978 | 36.68972 | 16107 ft | 399 kts | 140° |
| 2026-04-30 21:13 | 56.78860 | 36.71993 | 15915 ft | 385 kts | 140° |
| 2026-04-30 21:13 | 56.76784 | 36.74973 | 15776 ft | 371 kts | 140° |
| 2026-04-30 21:14 | 56.74783 | 36.77848 | 15620 ft | 360 kts | 140° |
| 2026-04-30 21:14 | 56.72830 | 36.80636 | 15469 ft | 350 kts | 140° |
| 2026-04-30 21:14 | 56.70854 | 36.83041 | 15185 ft | 345 kts | 153° |
| 2026-04-30 21:14 | 56.68648 | 36.84732 | 14847 ft | 342 kts | 158° |
| 2026-04-30 21:15 | 56.66435 | 36.86275 | 14481 ft | 339 kts | 158° |
| 2026-04-30 21:15 | 56.64234 | 36.87803 | 14120 ft | 336 kts | 158° |
| 2026-04-30 21:15 | 56.62050 | 36.89342 | 13753 ft | 334 kts | 158° |
| 2026-04-30 21:15 | 56.59898 | 36.90884 | 13392 ft | 331 kts | 158° |
| 2026-04-30 21:16 | 56.57785 | 36.92414 | 13034 ft | 329 kts | 158° |
| 2026-04-30 21:16 | 56.55667 | 36.93955 | 12681 ft | 327 kts | 157° |
| 2026-04-30 21:16 | 56.53641 | 36.95819 | 12300 ft | 324 kts | 141° |
| 2026-04-30 21:16 | 56.52034 | 36.98638 | 11968 ft | 319 kts | 132° |
| 2026-04-30 21:17 | 56.50554 | 37.01472 | 11819 ft | 304 kts | 132° |
| 2026-04-30 21:17 | 56.49129 | 37.04197 | 11556 ft | 293 kts | 132° |
| 2026-04-30 21:17 | 56.47722 | 37.06871 | 11075 ft | 292 kts | 132° |
| 2026-04-30 21:17 | 56.46326 | 37.09512 | 10706 ft | 286 kts | 133° |
| 2026-04-30 21:18 | 56.44980 | 37.12042 | 10386 ft | 279 kts | 133° |
| 2026-04-30 21:18 | 56.43634 | 37.14566 | 9964 ft | 277 kts | 133° |
| 2026-04-30 21:18 | 56.42298 | 37.17064 | 9495 ft | 276 kts | 133° |
| 2026-04-30 21:18 | 56.40967 | 37.19546 | 9059 ft | 274 kts | 133° |
| 2026-04-30 21:19 | 56.39643 | 37.22013 | 8670 ft | 271 kts | 133° |
| 2026-04-30 21:19 | 56.38333 | 37.24449 | 8366 ft | 270 kts | 133° |
| 2026-04-30 21:19 | 56.37043 | 37.26845 | 8087 ft | 269 kts | 133° |
| 2026-04-30 21:19 | 56.35735 | 37.29270 | 7812 ft | 267 kts | 134° |
| 2026-04-30 21:20 | 56.34435 | 37.31676 | 7490 ft | 268 kts | 133° |
| 2026-04-30 21:20 | 56.33123 | 37.34105 | 7135 ft | 271 kts | 134° |
| 2026-04-30 21:20 | 56.31814 | 37.36525 | 6940 ft | 266 kts | 134° |
| 2026-04-30 21:20 | 56.30546 | 37.38866 | 6710 ft | 263 kts | 134° |
| 2026-04-30 21:21 | 56.29267 | 37.41225 | 6442 ft | 262 kts | 134° |
| 2026-04-30 21:21 | 56.27975 | 37.43605 | 6206 ft | 268 kts | 134° |
| 2026-04-30 21:21 | 56.25319 | 37.48489 | 5489 ft | 277 kts | 134° |
| 2026-04-30 21:22 | 56.23973 | 37.50964 | 5185 ft | 276 kts | 134° |
| 2026-04-30 21:22 | 56.20039 | 37.58173 | 4812 ft | 264 kts | 134° |
| 2026-04-30 21:23 | 56.18770 | 37.60500 | 4670 ft | 257 kts | 135° |
| 2026-04-30 21:23 | 56.17317 | 37.62271 | 4461 ft | 252 kts | 159° |
| 2026-04-30 21:23 | 56.14148 | 37.64436 | 4286 ft | 236 kts | 159° |
| 2026-04-30 21:24 | 56.12624 | 37.65526 | 4111 ft | 240 kts | 158° |
| 2026-04-30 21:24 | 56.11083 | 37.66659 | 3932 ft | 237 kts | 158° |
| 2026-04-30 21:24 | 56.09569 | 37.67792 | 3754 ft | 233 kts | 157° |
| 2026-04-30 21:24 | 56.08088 | 37.68908 | 3574 ft | 229 kts | 157° |
| 2026-04-30 21:25 | 56.05146 | 37.70803 | 3170 ft | 223 kts | 182° |
| 2026-04-30 21:25 | 56.03770 | 37.69884 | 3006 ft | 214 kts | 224° |
| 2026-04-30 21:25 | 56.02717 | 37.68037 | 2876 ft | 210 kts | 225° |
| 2026-04-30 21:26 | 56.00663 | 37.64489 | 2465 ft | 197 kts | 237° |
| 2026-04-30 21:26 | 56.00300 | 37.62299 | 2420 ft | 186 kts | 266° |
| 2026-04-30 21:27 | 55.99564 | 37.57925 | 2037 ft | 184 kts | 260° |
| 2026-04-30 21:27 | 55.99305 | 37.55721 | 1919 ft | 178 kts | 253° |
| 2026-04-30 21:27 | 55.98965 | 37.53653 | 1691 ft | 168 kts | 254° |
| 2026-04-30 21:28 | 55.98393 | 37.49874 | 1300 ft | 153 kts | 254° |
| 2026-04-30 21:28 | 55.98120 | 37.48054 | 1088 ft | 149 kts | 254° |
| 2026-04-30 21:28 | 55.97612 | 37.44613 | 710 ft | 135 kts | 254° |
| 2026-04-30 21:29 | 55.97378 | 37.43084 | 639 ft | 113 kts | 255° |
| 2026-04-30 21:29 | 55.97224 | 37.41317 | 638 ft | 14 kts | 344° |
| 2026-04-30 21:30 | 55.97494 | 37.41188 | 638 ft | 14 kts | 345° |
| 2026-04-30 21:31 | 55.97577 | 37.41150 | 638 ft | 0 kts | 345° |
| 2026-04-30 21:31 | 55.97638 | 37.41252 | 643 ft | 9 kts | 76° |
| 2026-04-30 21:32 | 55.97651 | 37.41348 | 638 ft | 9 kts | 76° |
| 2026-04-30 21:32 | 55.97668 | 37.41472 | 638 ft | 4 kts | 75° |
| 2026-04-30 21:32 | 55.97677 | 37.41534 | 638 ft | 4 kts | 76° |
| 2026-04-30 21:32 | 55.97693 | 37.41639 | 640 ft | 15 kts | 74° |
| 2026-04-30 21:33 | 55.97712 | 37.41763 | 638 ft | 13 kts | 75° |
| 2026-04-30 21:33 | 55.97799 | 37.41812 | 638 ft | 0 kts | 347° |